Kagamaru — JD3049 — position and weather

sailwx.info

Track history (hours):
 
Tides and Currents Weather Stations Pressure Air Temp Water Temp Dewpoint Dewpoint Depression Visibility Wind Speed Wind Dir Waves Ship Positions

Kagamaru

Last reported at 2015-Aug-01 23:33 UTC. Time now 2015-Aug-02 00:14 UTC.
Position N 35°28' E 139°41'.

Length 34 m; draft 3.6 m.

Type: Tug. MMSI: 431001272.

Date/timePositionNaut miles runAvg speedWind from/ knotsBaromVisibWave heightAir tempDewpointWater temp
2015-Aug-01 23:33N 35°28' E 139°41'2 2.4
2015-Aug-01 22:34N 35°27' E 139°39'0 0.0
2015-Aug-01 21:34N 35°27' E 139°39'0 0.0
2015-Aug-01 20:34N 35°27' E 139°39'0 0.0
2015-Aug-01 19:34N 35°27' E 139°39'0 0.0
2015-Aug-01 18:33N 35°27' E 139°39'0 0.0
2015-Aug-01 17:34N 35°27' E 139°39'0 0.0
2015-Aug-01 16:34N 35°27' E 139°39'0 0.0
2015-Aug-01 15:33N 35°27' E 139°39'0 0.0
2015-Aug-01 14:33N 35°27' E 139°39'0 0.0
2015-Aug-01 13:34N 35°27' E 139°39'0 0.0
2015-Aug-01 12:34N 35°27' E 139°39'0 0.0
2015-Aug-01 11:34N 35°27' E 139°39'0 0.0
2015-Aug-01 10:33N 35°27' E 139°39'0 0.0
2015-Aug-01 09:34N 35°27' E 139°39'0 0.0
2015-Aug-01 08:33N 35°27' E 139°39'0 0.0
2015-Aug-01 07:33N 35°27' E 139°39'0 0.0
2015-Aug-01 06:34N 35°27' E 139°39'0 0.0
2015-Aug-01 05:34N 35°27' E 139°39'0 0.0
2015-Aug-01 04:33N 35°27' E 139°39'0 0.0
2015-Aug-01 03:34N 35°27' E 139°39'0 0.0
2015-Aug-01 02:34N 35°27' E 139°39'0 0.0
2015-Aug-01 01:33N 35°27' E 139°39'0 0.0
2015-Aug-01 00:33N 35°27' E 139°39'1 1.4
2015-Jul-31 23:34N 35°26' E 139°41'1 1.3
2015-Jul-31 22:33N 35°27' E 139°42'0 0.0
2015-Jul-31 21:34N 35°27' E 139°42'0 0.0
2015-Jul-31 20:34N 35°27' E 139°42'1 1.2
2015-Jul-31 19:34N 35°27' E 139°40'1 0.7
2015-Jul-31 18:34N 35°28' E 139°41'2 1.5
2015-Jul-31 17:34N 35°26' E 139°41'1 1.4
2015-Jul-31 16:33N 35°27' E 139°39'0 0.0
2015-Jul-31 15:33N 35°27' E 139°39'0 0.0
2015-Jul-31 14:33N 35°27' E 139°39'0 0.0
2015-Jul-31 13:34N 35°27' E 139°39'0 0.0
2015-Jul-31 12:34N 35°27' E 139°39'0 0.0
2015-Jul-31 11:34N 35°27' E 139°39'1 0.9
2015-Jul-31 10:34N 35°27' E 139°40'0 0.0
2015-Jul-31 09:34N 35°27' E 139°40'1 1.4
2015-Jul-31 08:34N 35°26' E 139°42'1 1.0
2015-Jul-31 07:33N 35°27' E 139°41'2 1.8
2015-Jul-31 06:33N 35°27' E 139°39'0 0.0
2015-Jul-31 05:34N 35°27' E 139°39'7 7.0
2015-Jul-31 04:33N 35°31' E 139°46'4 4.5
2015-Jul-31 03:34N 35°27' E 139°43'1 1.1
2015-Jul-31 02:34N 35°28' E 139°44'1 0.9
2015-Jul-31 01:34N 35°29' E 139°45'0 0.3
2015-Jul-31 00:34N 35°29' E 139°45'0 0.1
2015-Jul-30 23:34N 35°29' E 139°45'0 0.3
2015-Jul-30 22:34N 35°29' E 139°44'5 4.7
2015-Jul-30 21:34N 35°27' E 139°39'0 0.0
2015-Jul-30 20:33N 35°27' E 139°39'0 0.0
2015-Jul-30 19:34N 35°27' E 139°39'0 0.0
2015-Jul-30 18:34N 35°27' E 139°39'0 0.0
2015-Jul-30 17:34N 35°27' E 139°39'0 0.0
2015-Jul-30 16:33N 35°27' E 139°39'0 0.0
2015-Jul-30 15:34N 35°27' E 139°39'0 0.0
2015-Jul-30 14:34N 35°27' E 139°39'0 0.0
2015-Jul-30 13:34N 35°27' E 139°39'0 0.0
2015-Jul-30 12:34N 35°27' E 139°39'0 0.0
2015-Jul-30 11:33N 35°27' E 139°39'0 0.0
2015-Jul-30 10:34N 35°27' E 139°39'2 1.6
2015-Jul-30 09:33N 35°27' E 139°41'3 3.2
2015-Jul-30 08:33N 35°27' E 139°45'1 0.9
2015-Jul-30 07:34N 35°26' E 139°44'3 3.3
2015-Jul-30 06:34N 35°24' E 139°41'2 1.5
2015-Jul-30 05:33N 35°25' E 139°39'0 0.0
2015-Jul-30 04:34N 35°25' E 139°39'1 0.7
2015-Jul-30 03:34N 35°24' E 139°40'2 1.7
2015-Jul-30 02:34N 35°23' E 139°41'4 4.0
2015-Jul-30 01:34N 35°27' E 139°39'0 0.0
2015-Jul-30 00:34N 35°27' E 139°39'0 0.0
2015-Jul-29 23:34N 35°27' E 139°39'2 2.0
2015-Jul-29 22:33N 35°28' E 139°41'2 1.9
2015-Jul-29 21:34N 35°27' E 139°43'3 2.8
2015-Jul-29 20:34N 35°27' E 139°39'0 0.0
2015-Jul-29 19:34N 35°27' E 139°39'0 0.0
2015-Jul-29 18:34N 35°27' E 139°39'0 0.0
2015-Jul-29 17:34N 35°27' E 139°39'0 0.0
2015-Jul-29 16:34N 35°27' E 139°39'0 0.0
2015-Jul-29 15:34N 35°27' E 139°39'0 0.0
2015-Jul-29 14:34N 35°27' E 139°39'0 0.0
2015-Jul-29 13:33N 35°27' E 139°39'0 0.0
2015-Jul-29 12:33N 35°27' E 139°39'0 0.0
2015-Jul-29 11:34N 35°27' E 139°39'0 0.0
2015-Jul-29 10:33N 35°27' E 139°39'0 0.0
2015-Jul-29 09:33N 35°27' E 139°39'0 0.0
2015-Jul-29 08:34N 35°27' E 139°39'0 0.0
2015-Jul-29 07:34N 35°27' E 139°39'0 0.0
2015-Jul-29 06:34N 35°27' E 139°39'0 0.0
2015-Jul-29 05:33N 35°27' E 139°39'0 0.0
2015-Jul-29 04:34N 35°27' E 139°39'0 0.0
2015-Jul-29 03:34N 35°27' E 139°39'0 0.0
2015-Jul-29 02:34N 35°27' E 139°39'0 0.0
2015-Jul-29 01:34N 35°27' E 139°39'0 0.0
2015-Jul-29 00:33N 35°27' E 139°39'0 0.4
2015-Jul-28 23:33N 35°27' E 139°39'3 2.9
2015-Jul-28 22:33N 35°27' E 139°43'1 0.6
2015-Jul-28 21:33N 35°27' E 139°42'0 0.0
2015-Jul-28 20:33N 35°27' E 139°42'0 0.0
2015-Jul-28 19:34N 35°27' E 139°42'0 0.0
2015-Jul-28 18:33N 35°27' E 139°42'3 3.4
2015-Jul-28 17:34N 35°24' E 139°40'1 0.6
2015-Jul-28 16:33N 35°23' E 139°40'0 0.0
2015-Jul-28 15:34N 35°23' E 139°40'0 0.0
2015-Jul-28 14:33N 35°23' E 139°40'0 0.0
2015-Jul-28 13:34N 35°23' E 139°40'0 0.0
2015-Jul-28 12:34N 35°23' E 139°40'1 1.4
2015-Jul-28 11:34N 35°24' E 139°42'2 1.8
2015-Jul-28 10:34N 35°25' E 139°42'2 2.1
2015-Jul-28 09:33N 35°27' E 139°40'1 0.6
2015-Jul-28 08:34N 35°28' E 139°40'0 0.0
2015-Jul-28 07:33N 35°28' E 139°40'1 0.9
2015-Jul-28 06:33N 35°27' E 139°40'1 1.0
2015-Jul-28 05:34N 35°27' E 139°39'0 0.0
2015-Jul-28 04:34N 35°27' E 139°39'0 0.0
2015-Jul-28 03:34N 35°27' E 139°39'0 0.0
2015-Jul-28 02:34N 35°27' E 139°39'0 0.0
2015-Jul-28 01:34N 35°27' E 139°39'0 0.0
2015-Jul-28 00:33N 35°27' E 139°39'0 0.0
2015-Jul-27 23:33N 35°27' E 139°39'0 0.0
2015-Jul-27 22:33N 35°27' E 139°39'0 0.0
2015-Jul-27 21:33N 35°27' E 139°39'0 0.0
2015-Jul-27 20:33N 35°27' E 139°39'0 0.0
2015-Jul-27 19:34N 35°27' E 139°39'0 0.0
2015-Jul-27 18:34N 35°27' E 139°39'0 0.0
2015-Jul-27 17:34N 35°27' E 139°39'0 0.0
2015-Jul-27 16:34N 35°27' E 139°39'0 0.0
2015-Jul-27 15:34N 35°27' E 139°39'0 0.0
2015-Jul-27 14:34N 35°27' E 139°39'0 0.0
2015-Jul-27 13:34N 35°27' E 139°39'0 0.0
2015-Jul-27 12:34N 35°27' E 139°39'0 0.0
2015-Jul-27 11:33N 35°27' E 139°39'0 0.0
2015-Jul-27 10:34N 35°27' E 139°39'0 0.0
2015-Jul-27 09:33N 35°27' E 139°39'0 0.0
2015-Jul-27 08:33N 35°27' E 139°39'0 0.0
2015-Jul-27 07:33N 35°27' E 139°39'0 0.0
2015-Jul-27 06:34N 35°27' E 139°39'0 0.0
2015-Jul-27 05:34N 35°27' E 139°39'0 0.0
2015-Jul-27 04:33N 35°27' E 139°39'4 4.4
2015-Jul-27 03:34N 35°28' E 139°44'0 0.3
2015-Jul-27 02:33N 35°28' E 139°44'4 4.0
2015-Jul-27 01:33N 35°27' E 139°39'0 0.0
2015-Jul-27 00:34N 35°27' E 139°39'0 0.0
2015-Jul-26 23:34N 35°27' E 139°39'2 1.7
2015-Jul-26 22:34N 35°28' E 139°41'2 1.9
2015-Jul-26 21:34N 35°27' E 139°43'3 2.9
2015-Jul-26 20:33N 35°27' E 139°39'0 0.0
2015-Jul-26 19:34N 35°27' E 139°39'0 0.0
2015-Jul-26 18:33N 35°27' E 139°39'0 0.0
2015-Jul-26 17:34N 35°27' E 139°39'0 0.0
2015-Jul-26 16:34N 35°27' E 139°39'0 0.0
2015-Jul-26 15:34N 35°27' E 139°39'0 0.0
2015-Jul-26 14:34N 35°27' E 139°39'0 0.0
2015-Jul-26 13:33N 35°27' E 139°39'0 0.0
2015-Jul-26 12:33N 35°27' E 139°39'0 0.0
2015-Jul-26 11:34N 35°27' E 139°39'0 0.0
2015-Jul-26 10:34N 35°27' E 139°39'0 0.0
2015-Jul-26 09:34N 35°27' E 139°39'0 0.0
2015-Jul-26 08:34N 35°27' E 139°39'4 4.3
2015-Jul-26 07:34N 35°27' E 139°45'3 2.9
2015-Jul-26 06:33N 35°30' E 139°46'4 4.4
2015-Jul-26 05:34N 35°27' E 139°42'2 2.0
2015-Jul-26 04:34N 35°27' E 139°39'0 0.0
2015-Jul-26 03:34N 35°27' E 139°39'0 0.0
2015-Jul-26 02:33N 35°27' E 139°39'0 0.0
2015-Jul-26 01:33N 35°27' E 139°39'0 0.0
2015-Jul-26 00:34N 35°27' E 139°39'3 2.7
2015-Jul-25 23:34N 35°24' E 139°40'0 0.2
2015-Jul-25 22:33N 35°24' E 139°40'3 2.5
2015-Jul-25 21:34N 35°26' E 139°42'3 2.8
2015-Jul-25 20:33N 35°27' E 139°39'0 0.0
2015-Jul-25 19:34N 35°27' E 139°39'0 0.0
2015-Jul-25 18:33N 35°27' E 139°39'0 0.0
2015-Jul-25 17:34N 35°27' E 139°39'0 0.0
2015-Jul-25 16:33N 35°27' E 139°39'0 0.0
2015-Jul-25 15:34N 35°27' E 139°39'0 0.0
2015-Jul-25 14:34N 35°27' E 139°39'0 0.0
2015-Jul-25 13:33N 35°27' E 139°39'0 0.0
2015-Jul-25 12:34N 35°27' E 139°39'0 0.0
2015-Jul-25 11:34N 35°27' E 139°39'0 0.0
2015-Jul-25 10:34N 35°27' E 139°39'0 0.0
2015-Jul-25 09:34N 35°27' E 139°39'2 1.9
2015-Jul-25 08:34N 35°28' E 139°41'2 2.3
2015-Jul-25 07:34N 35°27' E 139°44'1 1.2
2015-Jul-25 06:34N 35°27' E 139°43'0 0.1
2015-Jul-25 05:34N 35°27' E 139°42'2 1.7
2015-Jul-25 04:34N 35°28' E 139°41'2 2.0
2015-Jul-25 03:34N 35°27' E 139°39'0 0.0
2015-Jul-25 02:34N 35°27' E 139°39'1 1.5
2015-Jul-25 01:34N 35°26' E 139°41'2 2.2
2015-Jul-25 00:34N 35°25' E 139°43'1 1.4
2015-Jul-24 23:34N 35°26' E 139°42'1 1.0
2015-Jul-24 22:34N 35°25' E 139°41'1 1.2
2015-Jul-24 21:34N 35°26' E 139°42'2 2.3
2015-Jul-24 20:33N 35°27' E 139°39'0 0.0
2015-Jul-24 19:33N 35°27' E 139°39'0 0.0
2015-Jul-24 18:34N 35°27' E 139°39'0 0.0
2015-Jul-24 17:34N 35°27' E 139°39'0 0.0
2015-Jul-24 16:34N 35°27' E 139°39'0 0.0
2015-Jul-24 15:33N 35°27' E 139°39'0 0.0
2015-Jul-24 14:34N 35°27' E 139°39'0 0.0
2015-Jul-24 13:33N 35°27' E 139°39'0 0.0
2015-Jul-24 12:33N 35°27' E 139°39'0 0.0
2015-Jul-24 11:34N 35°27' E 139°39'0 0.0
2015-Jul-24 10:34N 35°27' E 139°39'0 0.0
2015-Jul-24 09:34N 35°27' E 139°39'0 0.0
2015-Jul-24 08:34N 35°27' E 139°39'2 1.7
2015-Jul-24 07:34N 35°27' E 139°41'2 1.7
2015-Jul-24 06:34N 35°27' E 139°39'0 0.0
2015-Jul-24 05:33N 35°27' E 139°39'0 0.0
2015-Jul-24 04:34N 35°27' E 139°39'3 2.8
2015-Jul-24 03:34N 35°24' E 139°39'1 1.1
2015-Jul-24 02:34N 35°24' E 139°38'3 3.4
2015-Jul-24 01:34N 35°27' E 139°40'0 0.5
2015-Jul-24 00:33N 35°27' E 139°39'0 0.0
2015-Jul-23 23:33N 35°27' E 139°39'2 1.7
2015-Jul-23 22:34N 35°29' E 139°39'4 3.7
2015-Jul-23 21:33N 35°26' E 139°42'3 2.5
2015-Jul-23 20:34N 35°27' E 139°39'0 0.0
2015-Jul-23 19:34N 35°27' E 139°39'0 0.0
2015-Jul-23 18:34N 35°27' E 139°39'0 0.0
2015-Jul-23 17:34N 35°27' E 139°39'0 0.0
2015-Jul-23 16:34N 35°27' E 139°39'0 0.0
2015-Jul-23 15:34N 35°27' E 139°39'0 0.0
2015-Jul-23 14:34N 35°27' E 139°39'0 0.0
2015-Jul-23 13:34N 35°27' E 139°39'0 0.0
2015-Jul-23 12:34N 35°27' E 139°39'4 3.6
2015-Jul-23 11:34N 35°24' E 139°41'2 1.5
2015-Jul-23 10:33N 35°23' E 139°39'0 0.0
2015-Jul-23 09:34N 35°23' E 139°39'0 0.1
2015-Jul-23 08:33N 35°23' E 139°39'0 0.3
2015-Jul-23 07:34N 35°24' E 139°40'2 2.3
2015-Jul-23 06:34N 35°25' E 139°42'3 2.9
2015-Jul-23 05:34N 35°27' E 139°39'0 0.0
2015-Jul-23 04:34N 35°27' E 139°39'0 0.0
2015-Jul-23 03:34N 35°27' E 139°39'0 0.5
2015-Jul-23 02:33N 35°27' E 139°40'6 6.4
2015-Jul-23 01:33N 35°29' E 139°47'0 0.1
2015-Jul-23 00:33N 35°29' E 139°47'  
Track history (hours):
 
Tides and Currents Weather Stations Pressure Air Temp Water Temp Dewpoint Dewpoint Depression Visibility Wind Speed Wind Dir Waves Ship Positions

Kagamaru

Last reported at 2015-Aug-01 23:33 UTC. Time now 2015-Aug-02 00:14 UTC.
Position N 35°28' E 139°41'.

Length 34 m; draft 3.6 m.

Type: Tug. MMSI: 431001272.

Date/timePositionNaut miles runAvg speedWind from/ knotsBaromVisibWave heightAir tempDewpointWater temp
2015-Aug-01 23:33N 35°28' E 139°41'2 2.4
2015-Aug-01 22:34N 35°27' E 139°39'0 0.0
2015-Aug-01 21:34N 35°27' E 139°39'0 0.0
2015-Aug-01 20:34N 35°27' E 139°39'0 0.0
2015-Aug-01 19:34N 35°27' E 139°39'0 0.0
2015-Aug-01 18:33N 35°27' E 139°39'0 0.0
2015-Aug-01 17:34N 35°27' E 139°39'0 0.0
2015-Aug-01 16:34N 35°27' E 139°39'0 0.0
2015-Aug-01 15:33N 35°27' E 139°39'0 0.0
2015-Aug-01 14:33N 35°27' E 139°39'0 0.0
2015-Aug-01 13:34N 35°27' E 139°39'0 0.0
2015-Aug-01 12:34N 35°27' E 139°39'0 0.0
2015-Aug-01 11:34N 35°27' E 139°39'0 0.0
2015-Aug-01 10:33N 35°27' E 139°39'0 0.0
2015-Aug-01 09:34N 35°27' E 139°39'0 0.0
2015-Aug-01 08:33N 35°27' E 139°39'0 0.0
2015-Aug-01 07:33N 35°27' E 139°39'0 0.0
2015-Aug-01 06:34N 35°27' E 139°39'0 0.0
2015-Aug-01 05:34N 35°27' E 139°39'0 0.0
2015-Aug-01 04:33N 35°27' E 139°39'0 0.0
2015-Aug-01 03:34N 35°27' E 139°39'0 0.0
2015-Aug-01 02:34N 35°27' E 139°39'0 0.0
2015-Aug-01 01:33N 35°27' E 139°39'0 0.0
2015-Aug-01 00:33N 35°27' E 139°39'1 1.4
2015-Jul-31 23:34N 35°26' E 139°41'1 1.3
2015-Jul-31 22:33N 35°27' E 139°42'0 0.0
2015-Jul-31 21:34N 35°27' E 139°42'0 0.0
2015-Jul-31 20:34N 35°27' E 139°42'1 1.2
2015-Jul-31 19:34N 35°27' E 139°40'1 0.7
2015-Jul-31 18:34N 35°28' E 139°41'2 1.5
2015-Jul-31 17:34N 35°26' E 139°41'1 1.4
2015-Jul-31 16:33N 35°27' E 139°39'0 0.0
2015-Jul-31 15:33N 35°27' E 139°39'0 0.0
2015-Jul-31 14:33N 35°27' E 139°39'0 0.0
2015-Jul-31 13:34N 35°27' E 139°39'0 0.0
2015-Jul-31 12:34N 35°27' E 139°39'0 0.0
2015-Jul-31 11:34N 35°27' E 139°39'1 0.9
2015-Jul-31 10:34N 35°27' E 139°40'0 0.0
2015-Jul-31 09:34N 35°27' E 139°40'1 1.4
2015-Jul-31 08:34N 35°26' E 139°42'1 1.0
2015-Jul-31 07:33N 35°27' E 139°41'2 1.8
2015-Jul-31 06:33N 35°27' E 139°39'0 0.0
2015-Jul-31 05:34N 35°27' E 139°39'7 7.0
2015-Jul-31 04:33N 35°31' E 139°46'4 4.5
2015-Jul-31 03:34N 35°27' E 139°43'1 1.1
2015-Jul-31 02:34N 35°28' E 139°44'1 0.9
2015-Jul-31 01:34N 35°29' E 139°45'0 0.3
2015-Jul-31 00:34N 35°29' E 139°45'0 0.1
2015-Jul-30 23:34N 35°29' E 139°45'0 0.3
2015-Jul-30 22:34N 35°29' E 139°44'5 4.7
2015-Jul-30 21:34N 35°27' E 139°39'0 0.0
2015-Jul-30 20:33N 35°27' E 139°39'0 0.0
2015-Jul-30 19:34N 35°27' E 139°39'0 0.0
2015-Jul-30 18:34N 35°27' E 139°39'0 0.0
2015-Jul-30 17:34N 35°27' E 139°39'0 0.0
2015-Jul-30 16:33N 35°27' E 139°39'0 0.0
2015-Jul-30 15:34N 35°27' E 139°39'0 0.0
2015-Jul-30 14:34N 35°27' E 139°39'0 0.0
2015-Jul-30 13:34N 35°27' E 139°39'0 0.0
2015-Jul-30 12:34N 35°27' E 139°39'0 0.0
2015-Jul-30 11:33N 35°27' E 139°39'0 0.0
2015-Jul-30 10:34N 35°27' E 139°39'2 1.6
2015-Jul-30 09:33N 35°27' E 139°41'3 3.2
2015-Jul-30 08:33N 35°27' E 139°45'1 0.9
2015-Jul-30 07:34N 35°26' E 139°44'3 3.3
2015-Jul-30 06:34N 35°24' E 139°41'2 1.5
2015-Jul-30 05:33N 35°25' E 139°39'0 0.0
2015-Jul-30 04:34N 35°25' E 139°39'1 0.7
2015-Jul-30 03:34N 35°24' E 139°40'2 1.7
2015-Jul-30 02:34N 35°23' E 139°41'4 4.0
2015-Jul-30 01:34N 35°27' E 139°39'0 0.0
2015-Jul-30 00:34N 35°27' E 139°39'0 0.0
2015-Jul-29 23:34N 35°27' E 139°39'2 2.0
2015-Jul-29 22:33N 35°28' E 139°41'2 1.9
2015-Jul-29 21:34N 35°27' E 139°43'3 2.8
2015-Jul-29 20:34N 35°27' E 139°39'0 0.0
2015-Jul-29 19:34N 35°27' E 139°39'0 0.0
2015-Jul-29 18:34N 35°27' E 139°39'0 0.0
2015-Jul-29 17:34N 35°27' E 139°39'0 0.0
2015-Jul-29 16:34N 35°27' E 139°39'0 0.0
2015-Jul-29 15:34N 35°27' E 139°39'0 0.0
2015-Jul-29 14:34N 35°27' E 139°39'0 0.0
2015-Jul-29 13:33N 35°27' E 139°39'0 0.0
2015-Jul-29 12:33N 35°27' E 139°39'0 0.0
2015-Jul-29 11:34N 35°27' E 139°39'0 0.0
2015-Jul-29 10:33N 35°27' E 139°39'0 0.0
2015-Jul-29 09:33N 35°27' E 139°39'0 0.0
2015-Jul-29 08:34N 35°27' E 139°39'0 0.0
2015-Jul-29 07:34N 35°27' E 139°39'0 0.0
2015-Jul-29 06:34N 35°27' E 139°39'0 0.0
2015-Jul-29 05:33N 35°27' E 139°39'0 0.0
2015-Jul-29 04:34N 35°27' E 139°39'0 0.0
2015-Jul-29 03:34N 35°27' E 139°39'0 0.0
2015-Jul-29 02:34N 35°27' E 139°39'0 0.0
2015-Jul-29 01:34N 35°27' E 139°39'0 0.0
2015-Jul-29 00:33N 35°27' E 139°39'0 0.4
2015-Jul-28 23:33N 35°27' E 139°39'3 2.9
2015-Jul-28 22:33N 35°27' E 139°43'1 0.6
2015-Jul-28 21:33N 35°27' E 139°42'0 0.0
2015-Jul-28 20:33N 35°27' E 139°42'0 0.0
2015-Jul-28 19:34N 35°27' E 139°42'0 0.0
2015-Jul-28 18:33N 35°27' E 139°42'3 3.4
2015-Jul-28 17:34N 35°24' E 139°40'1 0.6
2015-Jul-28 16:33N 35°23' E 139°40'0 0.0
2015-Jul-28 15:34N 35°23' E 139°40'0 0.0
2015-Jul-28 14:33N 35°23' E 139°40'0 0.0
2015-Jul-28 13:34N 35°23' E 139°40'0 0.0
2015-Jul-28 12:34N 35°23' E 139°40'1 1.4
2015-Jul-28 11:34N 35°24' E 139°42'2 1.8
2015-Jul-28 10:34N 35°25' E 139°42'2 2.1
2015-Jul-28 09:33N 35°27' E 139°40'1 0.6
2015-Jul-28 08:34N 35°28' E 139°40'0 0.0
2015-Jul-28 07:33N 35°28' E 139°40'1 0.9
2015-Jul-28 06:33N 35°27' E 139°40'1 1.0
2015-Jul-28 05:34N 35°27' E 139°39'0 0.0
2015-Jul-28 04:34N 35°27' E 139°39'0 0.0
2015-Jul-28 03:34N 35°27' E 139°39'0 0.0
2015-Jul-28 02:34N 35°27' E 139°39'0 0.0
2015-Jul-28 01:34N 35°27' E 139°39'0 0.0
2015-Jul-28 00:33N 35°27' E 139°39'0 0.0
2015-Jul-27 23:33N 35°27' E 139°39'0 0.0
2015-Jul-27 22:33N 35°27' E 139°39'0 0.0
2015-Jul-27 21:33N 35°27' E 139°39'0 0.0
2015-Jul-27 20:33N 35°27' E 139°39'0 0.0
2015-Jul-27 19:34N 35°27' E 139°39'0 0.0
2015-Jul-27 18:34N 35°27' E 139°39'0 0.0
2015-Jul-27 17:34N 35°27' E 139°39'0 0.0
2015-Jul-27 16:34N 35°27' E 139°39'0 0.0
2015-Jul-27 15:34N 35°27' E 139°39'0 0.0
2015-Jul-27 14:34N 35°27' E 139°39'0 0.0
2015-Jul-27 13:34N 35°27' E 139°39'0 0.0
2015-Jul-27 12:34N 35°27' E 139°39'0 0.0
2015-Jul-27 11:33N 35°27' E 139°39'0 0.0
2015-Jul-27 10:34N 35°27' E 139°39'0 0.0
2015-Jul-27 09:33N 35°27' E 139°39'0 0.0
2015-Jul-27 08:33N 35°27' E 139°39'0 0.0
2015-Jul-27 07:33N 35°27' E 139°39'0 0.0
2015-Jul-27 06:34N 35°27' E 139°39'0 0.0
2015-Jul-27 05:34N 35°27' E 139°39'0 0.0
2015-Jul-27 04:33N 35°27' E 139°39'4 4.4
2015-Jul-27 03:34N 35°28' E 139°44'0 0.3
2015-Jul-27 02:33N 35°28' E 139°44'4 4.0
2015-Jul-27 01:33N 35°27' E 139°39'0 0.0
2015-Jul-27 00:34N 35°27' E 139°39'0 0.0
2015-Jul-26 23:34N 35°27' E 139°39'2 1.7
2015-Jul-26 22:34N 35°28' E 139°41'2 1.9
2015-Jul-26 21:34N 35°27' E 139°43'3 2.9
2015-Jul-26 20:33N 35°27' E 139°39'0 0.0
2015-Jul-26 19:34N 35°27' E 139°39'0 0.0
2015-Jul-26 18:33N 35°27' E 139°39'0 0.0
2015-Jul-26 17:34N 35°27' E 139°39'0 0.0
2015-Jul-26 16:34N 35°27' E 139°39'0 0.0
2015-Jul-26 15:34N 35°27' E 139°39'0 0.0
2015-Jul-26 14:34N 35°27' E 139°39'0 0.0
2015-Jul-26 13:33N 35°27' E 139°39'0 0.0
2015-Jul-26 12:33N 35°27' E 139°39'0 0.0
2015-Jul-26 11:34N 35°27' E 139°39'0 0.0
2015-Jul-26 10:34N 35°27' E 139°39'0 0.0
2015-Jul-26 09:34N 35°27' E 139°39'0 0.0
2015-Jul-26 08:34N 35°27' E 139°39'4 4.3
2015-Jul-26 07:34N 35°27' E 139°45'3 2.9
2015-Jul-26 06:33N 35°30' E 139°46'4 4.4
2015-Jul-26 05:34N 35°27' E 139°42'2 2.0
2015-Jul-26 04:34N 35°27' E 139°39'0 0.0
2015-Jul-26 03:34N 35°27' E 139°39'0 0.0
2015-Jul-26 02:33N 35°27' E 139°39'0 0.0
2015-Jul-26 01:33N 35°27' E 139°39'0 0.0
2015-Jul-26 00:34N 35°27' E 139°39'3 2.7
2015-Jul-25 23:34N 35°24' E 139°40'0 0.2
2015-Jul-25 22:33N 35°24' E 139°40'3 2.5
2015-Jul-25 21:34N 35°26' E 139°42'3 2.8
2015-Jul-25 20:33N 35°27' E 139°39'0 0.0
2015-Jul-25 19:34N 35°27' E 139°39'0 0.0
2015-Jul-25 18:33N 35°27' E 139°39'0 0.0
2015-Jul-25 17:34N 35°27' E 139°39'0 0.0
2015-Jul-25 16:33N 35°27' E 139°39'0 0.0
2015-Jul-25 15:34N 35°27' E 139°39'0 0.0
2015-Jul-25 14:34N 35°27' E 139°39'0 0.0
2015-Jul-25 13:33N 35°27' E 139°39'0 0.0
2015-Jul-25 12:34N 35°27' E 139°39'0 0.0
2015-Jul-25 11:34N 35°27' E 139°39'0 0.0
2015-Jul-25 10:34N 35°27' E 139°39'0 0.0
2015-Jul-25 09:34N 35°27' E 139°39'2 1.9
2015-Jul-25 08:34N 35°28' E 139°41'2 2.3
2015-Jul-25 07:34N 35°27' E 139°44'1 1.2
2015-Jul-25 06:34N 35°27' E 139°43'0 0.1
2015-Jul-25 05:34N 35°27' E 139°42'2 1.7
2015-Jul-25 04:34N 35°28' E 139°41'2 2.0
2015-Jul-25 03:34N 35°27' E 139°39'0 0.0
2015-Jul-25 02:34N 35°27' E 139°39'1 1.5
2015-Jul-25 01:34N 35°26' E 139°41'2 2.2
2015-Jul-25 00:34N 35°25' E 139°43'1 1.4
2015-Jul-24 23:34N 35°26' E 139°42'1 1.0
2015-Jul-24 22:34N 35°25' E 139°41'1 1.2
2015-Jul-24 21:34N 35°26' E 139°42'2 2.3
2015-Jul-24 20:33N 35°27' E 139°39'0 0.0
2015-Jul-24 19:33N 35°27' E 139°39'0 0.0
2015-Jul-24 18:34N 35°27' E 139°39'0 0.0
2015-Jul-24 17:34N 35°27' E 139°39'0 0.0
2015-Jul-24 16:34N 35°27' E 139°39'0 0.0
2015-Jul-24 15:33N 35°27' E 139°39'0 0.0
2015-Jul-24 14:34N 35°27' E 139°39'0 0.0
2015-Jul-24 13:33N 35°27' E 139°39'0 0.0
2015-Jul-24 12:33N 35°27' E 139°39'0 0.0
2015-Jul-24 11:34N 35°27' E 139°39'0 0.0
2015-Jul-24 10:34N 35°27' E 139°39'0 0.0
2015-Jul-24 09:34N 35°27' E 139°39'0 0.0
2015-Jul-24 08:34N 35°27' E 139°39'2 1.7
2015-Jul-24 07:34N 35°27' E 139°41'2 1.7
2015-Jul-24 06:34N 35°27' E 139°39'0 0.0
2015-Jul-24 05:33N 35°27' E 139°39'0 0.0
2015-Jul-24 04:34N 35°27' E 139°39'3 2.8
2015-Jul-24 03:34N 35°24' E 139°39'1 1.1
2015-Jul-24 02:34N 35°24' E 139°38'3 3.4
2015-Jul-24 01:34N 35°27' E 139°40'0 0.5
2015-Jul-24 00:33N 35°27' E 139°39'0 0.0
2015-Jul-23 23:33N 35°27' E 139°39'2 1.7
2015-Jul-23 22:34N 35°29' E 139°39'4 3.7
2015-Jul-23 21:33N 35°26' E 139°42'3 2.5
2015-Jul-23 20:34N 35°27' E 139°39'0 0.0
2015-Jul-23 19:34N 35°27' E 139°39'0 0.0
2015-Jul-23 18:34N 35°27' E 139°39'0 0.0
2015-Jul-23 17:34N 35°27' E 139°39'0 0.0
2015-Jul-23 16:34N 35°27' E 139°39'0 0.0
2015-Jul-23 15:34N 35°27' E 139°39'0 0.0
2015-Jul-23 14:34N 35°27' E 139°39'0 0.0
2015-Jul-23 13:34N 35°27' E 139°39'0 0.0
2015-Jul-23 12:34N 35°27' E 139°39'4 3.6
2015-Jul-23 11:34N 35°24' E 139°41'2 1.5
2015-Jul-23 10:33N 35°23' E 139°39'0 0.0
2015-Jul-23 09:34N 35°23' E 139°39'0 0.1
2015-Jul-23 08:33N 35°23' E 139°39'0 0.3
2015-Jul-23 07:34N 35°24' E 139°40'2 2.3
2015-Jul-23 06:34N 35°25' E 139°42'3 2.9
2015-Jul-23 05:34N 35°27' E 139°39'0 0.0
2015-Jul-23 04:34N 35°27' E 139°39'0 0.0
2015-Jul-23 03:34N 35°27' E 139°39'0 0.5
2015-Jul-23 02:33N 35°27' E 139°40'6 6.4
2015-Jul-23 01:33N 35°29' E 139°47'0 0.1
2015-Jul-23 00:33N 35°29' E 139°47'  

Dump ship's entire track history